Time;durP1;ratioP1;P1;durP2;ratioP2;P2;SDS_P1;SDS_P2;PMS_P1;PMS_P2;Temp;Humidity;BMP_temperature;BMP_pressure;BME280_temperature;BME280_humidity;BME280_pressure;Samples;Min_cycle;Max_cycle;Signal;HPM_P1;HPM_P2
2023/04/18 00:01:46;;;;;;;7.38;3.25;;;;;;;;;;5057501;28;20503;-79
2023/04/18 00:04:12;;;;;;;7.18;3.75;;;;;;;;;;5067865;28;20040;-79
2023/04/18 00:06:50;;;;;;;6.20;3.13;;;;;;;;;;5063937;28;20025;-79
2023/04/18 00:09:16;;;;;;;9.50;2.88;;;;;;;;;;5056485;28;20400;-79
2023/04/18 00:11:41;;;;;;;9.63;3.15;;;;;;;;;;5060224;28;20033;-79
2023/04/18 00:14:21;;;;;;;6.85;3.80;;;;;;;;;;5058325;28;20439;-80
2023/04/18 00:16:47;;;;;;;7.07;3.15;;;;;;;;;;5055843;28;20425;-79
2023/04/18 00:19:13;;;;;;;11.23;4.25;;;;;;;;;;5061110;28;20072;-79
2023/04/18 00:21:52;;;;;;;5.30;2.78;;;;;;;;;;5054035;28;20056;-79
2023/04/18 00:24:18;;;;;;;10.85;3.38;;;;;;;;;;5066222;28;20392;-79
2023/04/18 00:26:44;;;;;;;6.63;3.10;;;;;;;;;;5075802;28;20056;-79
2023/04/18 00:29:22;;;;;;;6.88;3.20;;;;;;;;;;5056520;28;20484;-79
2023/04/18 00:31:48;;;;;;;6.90;3.00;;;;;;;;;;5067681;28;20029;-79
2023/04/18 00:34:13;;;;;;;6.28;3.22;;;;;;;;;;5062430;28;20535;-79
2023/04/18 00:36:51;;;;;;;9.10;2.90;;;;;;;;;;5053362;28;20037;-79
2023/04/18 00:39:17;;;;;;;5.93;2.83;;;;;;;;;;5054370;28;20080;-79
2023/04/18 00:41:42;;;;;;;6.43;2.90;;;;;;;;;;5067385;28;20078;-78
2023/04/18 00:44:20;;;;;;;11.93;3.35;;;;;;;;;;5058731;28;20069;-79
2023/04/18 00:46:46;;;;;;;7.15;3.13;;;;;;;;;;5058370;28;20060;-79
2023/04/18 00:49:11;;;;;;;5.25;3.40;;;;;;;;;;5063562;28;20032;-79
2023/04/18 00:51:50;;;;;;;5.15;2.78;;;;;;;;;;5054711;28;20025;-79
2023/04/18 00:54:17;;;;;;;12.07;3.60;;;;;;;;;;5057856;28;20048;-79
2023/04/18 00:56:57;;;;;;;6.70;2.88;;;;;;;;;;5064530;28;20043;-79
2023/04/18 00:59:23;;;;;;;7.25;3.30;;;;;;;;;;5053111;28;20037;-79
2023/04/18 01:01:48;;;;;;;6.85;2.90;;;;;;;;;;5053497;28;20460;-79
2023/04/18 01:04:26;;;;;;;6.70;2.35;;;;;;;;;;5053093;28;20042;-79
2023/04/18 01:06:52;;;;;;;7.78;3.20;;;;;;;;;;5052016;28;20450;-79
2023/04/18 01:09:17;;;;;;;9.25;2.88;;;;;;;;;;5061124;28;20112;-79
2023/04/18 01:11:55;;;;;;;8.05;3.50;;;;;;;;;;5049780;28;20029;-79
2023/04/18 01:14:21;;;;;;;4.57;2.78;;;;;;;;;;5066889;28;20132;-79
2023/04/18 01:16:47;;;;;;;16.23;3.72;;;;;;;;;;5061887;28;20100;-79
2023/04/18 01:19:25;;;;;;;13.18;3.67;;;;;;;;;;5070253;28;20037;-79
2023/04/18 01:21:53;;;;;;;11.48;4.32;;;;;;;;;;5059294;28;20051;-79
2023/04/18 01:24:18;;;;;;;9.75;4.07;;;;;;;;;;5075416;28;20052;-79
2023/04/18 01:26:57;;;;;;;15.23;4.70;;;;;;;;;;5069405;28;20460;-78
2023/04/18 01:29:23;;;;;;;12.18;4.45;;;;;;;;;;5070060;28;20041;-79
2023/04/18 01:31:48;;;;;;;8.70;4.32;;;;;;;;;;5082732;28;20025;-79
2023/04/18 01:34:27;;;;;;;13.93;4.43;;;;;;;;;;5063739;28;20058;-79
2023/04/18 01:36:53;;;;;;;12.57;5.72;;;;;;;;;;5066701;28;20036;-79
2023/04/18 01:39:18;;;;;;;11.65;4.32;;;;;;;;;;5062083;28;20025;-79
2023/04/18 01:41:56;;;;;;;14.65;4.95;;;;;;;;;;5069143;28;20098;-78
2023/04/18 01:44:22;;;;;;;12.88;5.40;;;;;;;;;;5066242;28;20400;-79
2023/04/18 01:46:47;;;;;;;11.60;3.60;;;;;;;;;;5066534;28;20107;-79
2023/04/18 01:49:25;;;;;;;12.55;4.65;;;;;;;;;;5064426;28;20471;-79
2023/04/18 01:51:51;;;;;;;22.25;7.30;;;;;;;;;;5066371;28;20048;-79
2023/04/18 01:54:16;;;;;;;26.67;9.10;;;;;;;;;;5059713;28;20388;-79
2023/04/18 01:56:54;;;;;;;27.70;10.02;;;;;;;;;;5069444;28;20033;-79
2023/04/18 01:59:20;;;;;;;20.48;7.82;;;;;;;;;;5057808;28;20041;-79
2023/04/18 02:01:45;;;;;;;22.13;7.78;;;;;;;;;;5058100;28;20107;-79
2023/04/18 02:04:23;;;;;;;36.35;11.02;;;;;;;;;;5068430;28;20047;-79
2023/04/18 02:06:49;;;;;;;43.53;12.82;;;;;;;;;;5061329;28;20076;-79
2023/04/18 02:09:14;;;;;;;44.90;15.02;;;;;;;;;;5057155;28;20551;-79
2023/04/18 02:11:55;;;;;;;67.70;19.10;;;;;;;;;;5060007;28;20545;-79
2023/04/18 02:14:20;;;;;;;68.65;18.40;;;;;;;;;;5057097;28;20499;-79
2023/04/18 02:16:59;;;;;;;80.93;20.73;;;;;;;;;;5061858;28;20024;-79
2023/04/18 02:19:25;;;;;;;77.97;20.55;;;;;;;;;;5062095;28;20120;-79
2023/04/18 02:21:50;;;;;;;72.50;19.25;;;;;;;;;;5064355;28;20072;-79
2023/04/18 02:24:29;;;;;;;76.75;21.13;;;;;;;;;;5069703;28;20047;-79
2023/04/18 02:26:55;;;;;;;95.03;21.80;;;;;;;;;;5061563;28;20485;-79
2023/04/18 02:29:20;;;;;;;75.70;20.02;;;;;;;;;;5064634;28;20027;-80
2023/04/18 02:31:59;;;;;;;42.97;16.92;;;;;;;;;;5056778;28;20362;-79
2023/04/18 02:34:25;;;;;;;47.83;16.35;;;;;;;;;;5059387;28;20033;-79
2023/04/18 02:36:50;;;;;;;47.63;16.83;;;;;;;;;;5065262;28;20037;-79
2023/04/18 02:39:30;;;;;;;78.50;21.23;;;;;;;;;;5067142;28;20043;-79
2023/04/18 02:41:55;;;;;;;73.45;19.63;;;;;;;;;;5062363;28;20037;-79
2023/04/18 02:44:20;;;;;;;37.97;13.80;;;;;;;;;;5056724;28;20044;-80
2023/04/18 02:46:59;;;;;;;40.28;16.50;;;;;;;;;;5062787;28;20037;-79
2023/04/18 02:49:25;;;;;;;66.30;19.15;;;;;;;;;;5069746;28;20051;-80
2023/04/18 02:52:06;;;;;;;55.67;17.83;;;;;;;;;;5059371;28;20029;-79
2023/04/18 02:54:32;;;;;;;51.25;17.08;;;;;;;;;;5058358;28;20051;-79
2023/04/18 02:56:57;;;;;;;48.15;16.92;;;;;;;;;;5057327;28;20037;-79
2023/04/18 02:59:35;;;;;;;49.47;15.75;;;;;;;;;;5065430;28;20037;-79
2023/04/18 03:02:01;;;;;;;43.88;15.10;;;;;;;;;;5055529;28;20124;-79
2023/04/18 03:04:26;;;;;;;35.80;15.00;;;;;;;;;;5061853;28;20119;-80
2023/04/18 03:07:04;;;;;;;43.15;15.88;;;;;;;;;;5063000;28;20518;-79
2023/04/18 03:09:30;;;;;;;44.22;16.50;;;;;;;;;;5061653;28;20049;-79
2023/04/18 03:11:55;;;;;;;29.40;11.60;;;;;;;;;;5063251;28;20029;-79
2023/04/18 03:14:33;;;;;;;48.85;15.73;;;;;;;;;;5057528;28;20029;-79
2023/04/18 03:16:59;;;;;;;48.85;16.35;;;;;;;;;;5055452;28;20037;-79
2023/04/18 03:19:24;;;;;;;36.22;15.07;;;;;;;;;;5064851;28;20035;-79
2023/04/18 03:22:03;;;;;;;36.53;14.07;;;;;;;;;;5053511;28;20064;-79
2023/04/18 03:24:29;;;;;;;43.75;16.65;;;;;;;;;;5055816;28;20116;-79
2023/04/18 03:26:54;;;;;;;30.85;13.70;;;;;;;;;;5060485;28;20453;-79
2023/04/18 03:29:32;;;;;;;42.00;16.42;;;;;;;;;;5060038;28;20024;-78
2023/04/18 03:31:58;;;;;;;32.97;14.27;;;;;;;;;;5073330;28;20033;-79
2023/04/18 03:34:23;;;;;;;38.08;15.60;;;;;;;;;;5062270;28;20032;-79
2023/04/18 03:37:02;;;;;;;32.88;15.77;;;;;;;;;;5069348;28;20036;-79
2023/04/18 03:39:28;;;;;;;41.40;16.58;;;;;;;;;;5059489;28;20062;-79
2023/04/18 03:41:53;;;;;;;31.15;14.80;;;;;;;;;;5059966;28;20508;-79
2023/04/18 03:44:31;;;;;;;35.33;15.38;;;;;;;;;;5058653;28;20029;-79
2023/04/18 03:46:57;;;;;;;33.50;15.45;;;;;;;;;;5056344;28;20121;-79
2023/04/18 03:49:22;;;;;;;35.03;15.95;;;;;;;;;;5054691;28;20116;-79
2023/04/18 03:52:01;;;;;;;29.60;14.15;;;;;;;;;;5061920;28;20426;-78
2023/04/18 03:54:27;;;;;;;33.53;14.95;;;;;;;;;;5061536;28;20032;-79
2023/04/18 03:56:52;;;;;;;28.70;14.80;;;;;;;;;;5065397;28;20485;-79
2023/04/18 03:59:31;;;;;;;30.67;15.10;;;;;;;;;;5068169;28;20110;-79
2023/04/18 04:01:57;;;;;;;28.40;13.55;;;;;;;;;;5065924;28;20484;-79
2023/04/18 04:04:22;;;;;;;24.20;12.52;;;;;;;;;;5054821;28;20029;-79
2023/04/18 04:07:00;;;;;;;25.52;10.68;;;;;;;;;;5057993;28;20411;-78
2023/04/18 04:09:26;;;;;;;21.95;11.65;;;;;;;;;;5056518;28;20067;-79
2023/04/18 04:11:51;;;;;;;22.13;11.85;;;;;;;;;;5054442;28;20028;-79
2023/04/18 04:14:29;;;;;;;20.27;11.63;;;;;;;;;;5056488;28;20076;-79
2023/04/18 04:16:55;;;;;;;18.02;9.88;;;;;;;;;;5057897;28;20047;-79
2023/04/18 04:19:20;;;;;;;18.52;10.70;;;;;;;;;;5056647;28;20040;-79
2023/04/18 04:21:58;;;;;;;17.20;10.98;;;;;;;;;;5062670;28;20036;-78
2023/04/18 04:24:24;;;;;;;16.55;8.85;;;;;;;;;;5059105;28;20124;-79
2023/04/18 04:26:49;;;;;;;19.13;9.95;;;;;;;;;;5065104;28;20068;-79
2023/04/18 04:29:28;;;;;;;23.75;12.02;;;;;;;;;;5055509;28;20037;-79
2023/04/18 04:31:54;;;;;;;21.10;11.32;;;;;;;;;;5063057;28;20068;-79
2023/04/18 04:34:20;;;;;;;23.92;13.07;;;;;;;;;;5064135;28;20060;-79
2023/04/18 04:36:59;;;;;;;21.67;12.63;;;;;;;;;;5062212;28;20032;-79
2023/04/18 04:39:25;;;;;;;23.67;12.07;;;;;;;;;;5069336;28;20050;-79
2023/04/18 04:41:52;;;;;;;22.63;12.07;;;;;;;;;;5068622;28;20103;-79
2023/04/18 04:44:30;;;;;;;25.02;10.63;;;;;;;;;;5070731;28;20040;-79
2023/04/18 04:46:56;;;;;;;28.23;13.10;;;;;;;;;;5054237;28;20036;-79
2023/04/18 04:49:22;;;;;;;20.02;11.50;;;;;;;;;;5061162;28;20029;-79
2023/04/18 04:52:01;;;;;;;24.27;12.52;;;;;;;;;;5067466;28;20373;-79
2023/04/18 04:54:27;;;;;;;23.55;12.15;;;;;;;;;;5069790;28;20052;-79
2023/04/18 04:56:52;;;;;;;25.33;13.23;;;;;;;;;;5061139;28;20044;-79
2023/04/18 04:59:30;;;;;;;24.38;12.25;;;;;;;;;;5054755;28;20082;-79
2023/04/18 05:01:56;;;;;;;27.13;12.93;;;;;;;;;;5056493;28;20037;-79
2023/04/18 05:04:23;;;;;;;25.75;12.73;;;;;;;;;;5058983;28;20119;-79
2023/04/18 05:07:01;;;;;;;18.38;9.05;;;;;;;;;;5070505;28;20033;-78
2023/04/18 05:09:27;;;;;;;24.13;13.30;;;;;;;;;;5061234;28;20177;-79
2023/04/18 05:11:52;;;;;;;28.88;13.38;;;;;;;;;;5058543;28;20456;-78
2023/04/18 05:14:30;;;;;;;26.83;12.77;;;;;;;;;;5063629;28;20032;-79
2023/04/18 05:16:56;;;;;;;25.98;13.30;;;;;;;;;;5061780;28;20037;-80
2023/04/18 05:19:22;;;;;;;24.15;12.90;;;;;;;;;;5061142;28;20028;-79
2023/04/18 05:22:00;;;;;;;24.85;13.82;;;;;;;;;;5055096;28;20049;-79
2023/04/18 05:24:26;;;;;;;29.50;12.75;;;;;;;;;;5063171;28;20540;-79
2023/04/18 05:26:51;;;;;;;24.27;11.95;;;;;;;;;;5060819;28;20115;-79
2023/04/18 05:29:30;;;;;;;30.73;15.23;;;;;;;;;;5059467;28;20033;-79
2023/04/18 05:31:56;;;;;;;26.27;13.65;;;;;;;;;;5065234;28;20053;-79
2023/04/18 05:34:21;;;;;;;27.80;13.10;;;;;;;;;;5052944;28;20063;-79
2023/04/18 05:37:00;;;;;;;30.67;14.10;;;;;;;;;;5048850;28;20037;-79
2023/04/18 05:39:26;;;;;;;23.92;12.77;;;;;;;;;;5051187;28;20068;-80
2023/04/18 05:41:51;;;;;;;27.02;13.43;;;;;;;;;;5056662;28;20461;-79
2023/04/18 05:44:30;;;;;;;31.15;13.82;;;;;;;;;;5054686;28;20041;-79
2023/04/18 05:46:56;;;;;;;26.27;13.25;;;;;;;;;;5055783;28;20538;-80
2023/04/18 05:49:21;;;;;;;28.98;13.93;;;;;;;;;;5058805;28;20040;-79
2023/04/18 05:51:59;;;;;;;31.75;13.93;;;;;;;;;;5058854;28;20048;-79
2023/04/18 05:54:25;;;;;;;26.95;13.38;;;;;;;;;;5061667;28;20362;-79
2023/04/18 05:56:50;;;;;;;28.48;13.13;;;;;;;;;;5060857;28;20035;-79
2023/04/18 05:59:29;;;;;;;30.33;14.13;;;;;;;;;;5062296;28;20025;-79
2023/04/18 06:01:55;;;;;;;24.75;12.85;;;;;;;;;;5054457;28;20045;-79
2023/04/18 06:04:20;;;;;;;23.58;11.50;;;;;;;;;;5053765;28;20044;-79
2023/04/18 06:06:59;;;;;;;31.92;14.82;;;;;;;;;;5059041;28;20103;-79
2023/04/18 06:09:25;;;;;;;26.70;12.98;;;;;;;;;;5049380;28;20489;-80
2023/04/18 06:11:50;;;;;;;23.58;11.60;;;;;;;;;;5061056;28;20036;-79
2023/04/18 06:14:29;;;;;;;23.20;12.38;;;;;;;;;;5056658;28;20044;-79
2023/04/18 06:16:55;;;;;;;26.20;12.38;;;;;;;;;;5058704;28;20476;-80
2023/04/18 06:19:20;;;;;;;26.85;12.27;;;;;;;;;;5054184;28;20116;-79
2023/04/18 06:22:00;;;;;;;27.83;13.35;;;;;;;;;;5057247;28;20059;-79
2023/04/18 06:24:25;;;;;;;26.38;13.20;;;;;;;;;;5069579;28;20051;-79
2023/04/18 06:26:50;;;;;;;24.38;12.50;;;;;;;;;;5065275;28;20443;-79
2023/04/18 06:29:31;;;;;;;26.42;13.32;;;;;;;;;;5066328;28;20043;-80
2023/04/18 06:31:57;;;;;;;25.13;12.38;;;;;;;;;;5052390;28;20037;-80
2023/04/18 06:34:37;;;;;;;26.38;13.07;;;;;;;;;;5070667;28;20040;-80
2023/04/18 06:37:02;;;;;;;28.45;13.63;;;;;;;;;;5058690;28;20488;-80
2023/04/18 06:39:28;;;;;;;21.60;11.50;;;;;;;;;;5063215;28;20040;-80
2023/04/18 06:42:06;;;;;;;20.50;11.57;;;;;;;;;;5058114;28;20040;-80
2023/04/18 06:44:32;;;;;;;24.17;11.40;;;;;;;;;;5048850;28;20041;-80
2023/04/18 06:46:57;;;;;;;22.23;11.38;;;;;;;;;;5064113;28;20043;-80
2023/04/18 06:49:36;;;;;;;21.52;9.88;;;;;;;;;;5060485;28;20033;-80
2023/04/18 06:52:02;;;;;;;23.63;11.60;;;;;;;;;;5059967;28;20082;-80
2023/04/18 06:54:27;;;;;;;20.65;9.80;;;;;;;;;;5055207;28;20123;-80
2023/04/18 06:57:05;;;;;;;21.67;10.80;;;;;;;;;;5055380;28;20037;-80
2023/04/18 06:59:31;;;;;;;21.92;10.90;;;;;;;;;;5059727;28;20120;-80
2023/04/18 07:01:56;;;;;;;24.13;11.25;;;;;;;;;;5063044;28;20448;-80
2023/04/18 07:04:34;;;;;;;21.23;10.98;;;;;;;;;;5062080;28;20032;-81
2023/04/18 07:07:04;;;;;;;21.40;11.07;;;;;;;;;;5059095;28;20471;-79
2023/04/18 07:09:42;;;;;;;21.00;10.55;;;;;;;;;;5060614;28;20045;-80
2023/04/18 07:12:08;;;;;;;23.88;10.95;;;;;;;;;;5066500;28;20044;-80
2023/04/18 07:14:33;;;;;;;21.38;10.82;;;;;;;;;;5062486;28;20032;-79
2023/04/18 07:17:11;;;;;;;16.35;8.95;;;;;;;;;;5065920;28;20025;-80
2023/04/18 07:19:37;;;;;;;19.60;10.38;;;;;;;;;;5064439;28;20400;-80
2023/04/18 07:22:02;;;;;;;14.32;8.48;;;;;;;;;;5068587;28;20061;-80
2023/04/18 07:24:41;;;;;;;21.65;10.02;;;;;;;;;;5065003;28;20044;-80
2023/04/18 07:27:08;;;;;;;18.10;9.07;;;;;;;;;;5055242;28;20041;-80
2023/04/18 07:29:33;;;;;;;19.55;9.90;;;;;;;;;;5062898;28;20420;-80
2023/04/18 07:32:12;;;;;;;18.42;9.90;;;;;;;;;;5054688;28;20086;-80
2023/04/18 07:34:39;;;;;;;20.15;10.20;;;;;;;;;;5054160;28;20041;-80
2023/04/18 07:37:04;;;;;;;20.20;9.38;;;;;;;;;;5044611;28;20122;-80
2023/04/18 07:39:42;;;;;;;17.75;9.45;;;;;;;;;;5037553;28;20029;-80
2023/04/18 07:42:08;;;;;;;17.65;8.98;;;;;;;;;;5054001;28;20041;-80
2023/04/18 07:44:34;;;;;;;17.52;9.43;;;;;;;;;;5048457;28;20051;-80
2023/04/18 07:47:13;;;;;;;15.70;8.65;;;;;;;;;;5053712;28;20037;-80
2023/04/18 07:49:39;;;;;;;16.13;8.80;;;;;;;;;;5058801;28;20060;-81
2023/04/18 07:52:04;;;;;;;18.35;8.95;;;;;;;;;;5061857;28;20465;-79
2023/04/18 07:54:43;;;;;;;15.20;8.38;;;;;;;;;;5061442;28;20032;-80
2023/04/18 07:57:09;;;;;;;19.98;9.23;;;;;;;;;;5062585;28;20040;-81
2023/04/18 07:59:35;;;;;;;20.65;8.70;;;;;;;;;;5056124;28;20037;-80
2023/04/18 08:02:13;;;;;;;16.88;8.98;;;;;;;;;;5056289;28;20869;-80
2023/04/18 08:04:39;;;;;;;17.55;9.68;;;;;;;;;;5036924;28;20052;-80
2023/04/18 08:07:04;;;;;;;18.23;8.50;;;;;;;;;;5060174;28;20032;-80
2023/04/18 08:09:42;;;;;;;14.38;8.27;;;;;;;;;;5066078;28;20037;-78
2023/04/18 08:12:08;;;;;;;18.05;8.98;;;;;;;;;;5050444;28;20151;-80
2023/04/18 08:14:33;;;;;;;14.80;8.75;;;;;;;;;;5050311;28;20124;-78
2023/04/18 08:17:11;;;;;;;18.77;9.88;;;;;;;;;;5062312;28;20033;-80
2023/04/18 08:19:37;;;;;;;17.65;8.77;;;;;;;;;;5054241;28;20047;-80
2023/04/18 08:22:22;;;;;;;15.45;8.88;;;;;;;;;;5054574;28;20053;-80
2023/04/18 08:24:48;;;;;;;18.75;8.23;;;;;;;;;;5048048;28;20093;-80
2023/04/18 08:27:13;;;;;;;14.98;7.88;;;;;;;;;;5065507;28;20493;-79
2023/04/18 08:29:51;;;;;;;17.52;9.10;;;;;;;;;;5065355;28;20040;-79
2023/04/18 08:32:17;;;;;;;17.52;8.60;;;;;;;;;;5056372;28;20047;-78
2023/04/18 08:34:42;;;;;;;18.13;8.40;;;;;;;;;;5053983;28;20025;-80
2023/04/18 08:37:20;;;;;;;13.80;8.00;;;;;;;;;;5057981;28;20385;-80
2023/04/18 08:39:46;;;;;;;15.45;8.75;;;;;;;;;;5053448;28;20411;-80
2023/04/18 08:42:27;;;;;;;11.20;6.30;;;;;;;;;;5054634;28;20492;-80
2023/04/18 08:44:53;;;;;;;14.98;7.85;;;;;;;;;;5050424;28;20068;-80
2023/04/18 08:47:19;;;;;;;14.45;7.65;;;;;;;;;;5064337;28;20097;-81
2023/04/18 08:49:57;;;;;;;15.38;8.40;;;;;;;;;;5063638;28;20374;-81
2023/04/18 08:52:25;;;;;;;12.30;7.72;;;;;;;;;;5046511;28;20040;-82
2023/04/18 08:55:04;;;;;;;13.73;8.00;;;;;;;;;;5050427;28;20049;-81
2023/04/18 08:57:30;;;;;;;14.35;8.23;;;;;;;;;;5053686;28;20076;-82
2023/04/18 09:00:11;;;;;;;14.95;9.50;;;;;;;;;;5053866;28;20437;-82
2023/04/18 09:02:42;;;;;;;14.40;8.45;;;;;;;;;;5064497;28;20071;-81
2023/04/18 09:05:25;;;;;;;14.93;9.38;;;;;;;;;;5068726;28;20024;-82
2023/04/18 09:07:52;;;;;;;14.10;8.55;;;;;;;;;;5052766;28;20593;-82
2023/04/18 09:10:39;;;;;;;11.73;7.97;;;;;;;;;;5049213;28;20507;-82
2023/04/18 09:13:04;;;;;;;15.35;8.77;;;;;;;;;;5041950;28;20041;-82
2023/04/18 09:15:37;;;;;;;12.80;7.28;;;;;;;;;;5050440;28;20040;-82
2023/04/18 09:18:09;;;;;;;14.13;8.87;;;;;;;;;;5048416;28;20166;-76
2023/04/18 09:20:36;;;;;;;13.37;9.70;;;;;;;;;;5048593;28;20282;-80
2023/04/18 09:23:16;;;;;;;14.68;8.98;;;;;;;;;;5040706;28;20080;-80
2023/04/18 09:25:45;;;;;;;12.75;9.15;;;;;;;;;;5044275;28;20548;-80
2023/04/18 09:28:32;;;;;;;13.38;9.48;;;;;;;;;;5044272;28;20045;-79
2023/04/18 09:31:10;;;;;;;14.52;8.75;;;;;;;;;;5047543;28;20127;-80
2023/04/18 09:33:59;;;;;;;14.55;9.30;;;;;;;;;;5046869;28;20534;-81
2023/04/18 09:36:30;;;;;;;13.68;8.70;;;;;;;;;;5059288;28;20099;-81
2023/04/18 09:39:08;;;;;;;17.00;9.20;;;;;;;;;;5055712;28;20143;-82
2023/04/18 09:41:34;;;;;;;16.88;10.23;;;;;;;;;;5057528;28;20040;-81
2023/04/18 09:44:22;;;;;;;16.00;9.18;;;;;;;;;;5049089;28;20037;-81
2023/04/18 09:46:48;;;;;;;13.60;9.05;;;;;;;;;;5047996;28;20032;-81
2023/04/18 09:49:14;;;;;;;16.45;9.20;;;;;;;;;;5043780;28;20564;-79
2023/04/18 09:51:56;;;;;;;14.75;8.70;;;;;;;;;;5049052;28;20079;-80
2023/04/18 09:54:23;;;;;;;12.90;8.70;;;;;;;;;;5059255;28;20068;-81
2023/04/18 09:56:55;;;;;;;17.00;8.95;;;;;;;;;;5055690;28;20041;-80
2023/04/18 09:59:38;;;;;;;13.98;8.70;;;;;;;;;;5068028;28;20087;-80
2023/04/18 10:02:17;;;;;;;12.38;8.20;;;;;;;;;;5069159;28;20040;-80
2023/04/18 10:04:50;;;;;;;14.07;8.75;;;;;;;;;;5084266;28;20040;-81
2023/04/18 10:07:24;;;;;;;11.13;7.68;;;;;;;;;;5059385;28;20033;-78
2023/04/18 10:09:50;;;;;;;11.27;7.07;;;;;;;;;;5046038;28;20045;-79
2023/04/18 10:12:23;;;;;;;14.38;8.73;;;;;;;;;;5057492;28;20057;-81
2023/04/18 10:14:55;;;;;;;11.02;6.03;;;;;;;;;;5055068;28;20091;-80
2023/04/18 10:17:21;;;;;;;11.15;6.60;;;;;;;;;;5087487;28;20040;-80
2023/04/18 10:20:21;;;;;;;14.15;6.88;;;;;;;;;;5066894;28;20033;-79
2023/04/18 10:22:47;;;;;;;14.95;7.50;;;;;;;;;;5049346;28;20115;-79
2023/04/18 10:25:44;;;;;;;12.73;8.10;;;;;;;;;;5063417;28;20044;-79
2023/04/18 10:28:11;;;;;;;11.98;7.63;;;;;;;;;;5057505;28;20388;-80
2023/04/18 10:30:43;;;;;;;12.77;6.55;;;;;;;;;;5051706;28;20033;-79
2023/04/18 10:33:44;;;;;;;13.10;8.13;;;;;;;;;;5051254;28;20037;-79
2023/04/18 10:36:19;;;;;;;14.68;7.90;;;;;;;;;;5061273;28;20048;-78
2023/04/18 10:38:55;;;;;;;9.90;5.95;;;;;;;;;;5054837;28;20045;-78
2023/04/18 10:41:32;;;;;;;18.98;8.10;;;;;;;;;;5075805;28;20071;-78
2023/04/18 10:44:26;;;;;;;13.15;7.32;;;;;;;;;;5060710;28;20134;-79
2023/04/18 10:46:58;;;;;;;17.98;7.72;;;;;;;;;;5052506;28;20041;-79
2023/04/18 10:49:24;;;;;;;18.95;9.05;;;;;;;;;;5059520;28;20485;-78
2023/04/18 10:52:04;;;;;;;10.48;6.00;;;;;;;;;;5057548;28;20477;-78
2023/04/18 10:54:42;;;;;;;11.55;6.78;;;;;;;;;;5053597;28;20048;-79
2023/04/18 10:57:14;;;;;;;14.80;6.60;;;;;;;;;;5056240;28;20060;-78
2023/04/18 10:59:49;;;;;;;10.95;5.05;;;;;;;;;;5053302;28;20045;-78
2023/04/18 11:02:34;;;;;;;12.25;5.43;;;;;;;;;;5052901;28;20174;-78
2023/04/18 11:05:07;;;;;;;10.02;5.60;;;;;;;;;;5054371;28;20123;-78
2023/04/18 11:07:44;;;;;;;11.48;5.35;;;;;;;;;;5049699;28;20040;-77
2023/04/18 11:10:19;;;;;;;10.38;5.35;;;;;;;;;;5065193;28;20496;-77
2023/04/18 11:12:51;;;;;;;12.93;5.80;;;;;;;;;;5069298;28;20131;-78
2023/04/18 11:15:24;;;;;;;12.93;6.13;;;;;;;;;;5048854;28;20041;-78
2023/04/18 11:18:05;;;;;;;14.70;5.60;;;;;;;;;;5056476;28;20049;-78
2023/04/18 11:20:39;;;;;;;11.57;5.63;;;;;;;;;;5059823;28;20041;-78
2023/04/18 11:23:23;;;;;;;12.30;6.20;;;;;;;;;;5071501;28;20048;-78
2023/04/18 11:25:57;;;;;;;;;;;;;;;;;;5060936;28;20064;-77
2023/04/18 11:28:28;;;;;;;6.60;4.07;;;;;;;;;;5062809;28;19965;-77
2023/04/18 11:31:03;;;;;;;11.18;6.35;;;;;;;;;;5056266;28;20488;-78
2023/04/18 11:33:28;;;;;;;10.10;4.88;;;;;;;;;;5046022;28;20073;-78
2023/04/18 11:36:02;;;;;;;8.57;5.28;;;;;;;;;;5052992;28;20469;-78
2023/04/18 11:38:36;;;;;;;9.77;4.57;;;;;;;;;;5054542;28;20040;-78
2023/04/18 11:41:01;;;;;;;6.72;4.03;;;;;;;;;;5057598;28;20041;-77
2023/04/18 11:43:33;;;;;;;6.68;4.00;;;;;;;;;;5054937;28;20041;-78
2023/04/18 11:46:06;;;;;;;8.02;4.68;;;;;;;;;;5059370;28;20037;-77
2023/04/18 11:48:49;;;;;;;11.45;5.60;;;;;;;;;;5050109;28;20037;-78
2023/04/18 11:51:33;;;;;;;9.83;5.17;;;;;;;;;;5062100;28;20090;-78
2023/04/18 11:54:04;;;;;;;9.10;4.85;;;;;;;;;;5052197;28;20123;-78
2023/04/18 11:56:46;;;;;;;7.18;3.80;;;;;;;;;;5050576;28;20124;-78
2023/04/18 11:59:17;;;;;;;13.15;5.43;;;;;;;;;;5059614;28;20430;-78
2023/04/18 12:02:03;;;;;;;8.75;5.72;;;;;;;;;;5052228;28;20456;-78
2023/04/18 12:04:35;;;;;;;10.85;5.72;;;;;;;;;;5060392;28;20464;-78
2023/04/18 12:07:08;;;;;;;15.38;5.90;;;;;;;;;;5053694;28;20083;-77
2023/04/18 12:09:43;;;;;;;11.80;5.32;;;;;;;;;;5054613;28;20044;-77
2023/04/18 12:12:17;;;;;;;10.00;5.70;;;;;;;;;;5052633;28;20040;-78
2023/04/18 12:14:52;;;;;;;12.23;5.13;;;;;;;;;;5053005;28;20044;-77
2023/04/18 12:17:26;;;;;;;8.52;4.80;;;;;;;;;;5043163;28;20112;-78
2023/04/18 12:19:58;;;;;;;9.57;6.13;;;;;;;;;;5054573;28;20033;-78
2023/04/18 12:22:44;;;;;;;10.10;5.35;;;;;;;;;;5055195;28;20127;-78
2023/04/18 12:25:25;;;;;;;8.73;4.90;;;;;;;;;;5064482;28;20037;-78
2023/04/18 12:28:13;;;;;;;11.23;4.53;;;;;;;;;;5044968;28;20507;-76
2023/04/18 12:30:45;;;;;;;6.55;4.15;;;;;;;;;;5052226;28;20036;-78
2023/04/18 12:33:18;;;;;;;6.45;4.10;;;;;;;;;;5051599;28;20055;-78
2023/04/18 12:35:44;;;;;;;6.65;4.20;;;;;;;;;;5054468;28;20029;-78
2023/04/18 12:38:16;;;;;;;10.10;4.55;;;;;;;;;;5053129;28;20035;-77
2023/04/18 12:40:50;;;;;;;7.60;4.53;;;;;;;;;;5060756;28;20499;-77
2023/04/18 12:43:16;;;;;;;12.73;4.80;;;;;;;;;;5055811;28;20041;-78
2023/04/18 12:45:48;;;;;;;8.48;4.53;;;;;;;;;;5025922;28;20107;-78
2023/04/18 12:48:21;;;;;;;13.63;5.10;;;;;;;;;;5038766;28;20590;-77
2023/04/18 12:50:46;;;;;;;10.32;4.93;;;;;;;;;;5033004;28;20033;-77
2023/04/18 12:53:19;;;;;;;7.15;3.88;;;;;;;;;;5052986;28;20377;-77
2023/04/18 12:55:51;;;;;;;8.98;3.50;;;;;;;;;;5051063;28;20550;-77
2023/04/18 12:58:17;;;;;;;8.85;3.80;;;;;;;;;;5038320;28;20033;-77
2023/04/18 13:00:49;;;;;;;8.65;5.03;;;;;;;;;;5038355;28;20040;-78
2023/04/18 13:03:22;;;;;;;8.13;4.75;;;;;;;;;;5043538;28;20592;-77
2023/04/18 13:05:47;;;;;;;9.23;4.57;;;;;;;;;;5044815;28;20114;-77
2023/04/18 13:08:21;;;;;;;10.30;4.10;;;;;;;;;;5052394;28;20070;-77
2023/04/18 13:10:53;;;;;;;;;;;;;;;;;;5051727;28;20041;-77
2023/04/18 13:13:18;;;;;;;14.70;3.00;;;;;;;;;;5049226;28;19913;-77
2023/04/18 13:15:50;;;;;;;7.28;3.67;;;;;;;;;;5046902;28;20663;-78
2023/04/18 13:18:22;;;;;;;6.03;3.35;;;;;;;;;;5049119;28;20118;-77
2023/04/18 13:20:48;;;;;;;10.63;4.10;;;;;;;;;;5044834;28;20037;-78
2023/04/18 13:23:20;;;;;;;10.40;4.28;;;;;;;;;;5046293;28;20052;-77
2023/04/18 13:25:53;;;;;;;11.10;4.00;;;;;;;;;;5048264;28;20033;-76
2023/04/18 13:28:18;;;;;;;5.25;3.10;;;;;;;;;;5054854;28;20047;-77
2023/04/18 13:30:50;;;;;;;7.90;3.72;;;;;;;;;;5053601;28;20025;-77
2023/04/18 13:33:23;;;;;;;8.32;3.97;;;;;;;;;;5056185;28;20045;-78
2023/04/18 13:35:48;;;;;;;9.02;3.65;;;;;;;;;;5048342;28;20041;-77
2023/04/18 13:38:19;;;;;;;6.65;3.22;;;;;;;;;;5055396;28;20036;-78
2023/04/18 13:40:52;;;;;;;5.57;3.67;;;;;;;;;;5049550;28;20112;-77
2023/04/18 13:43:17;;;;;;;7.60;3.38;;;;;;;;;;5052627;28;20040;-78
2023/04/18 13:45:48;;;;;;;7.03;3.78;;;;;;;;;;5050818;28;20029;-77
2023/04/18 13:48:21;;;;;;;6.30;3.58;;;;;;;;;;5047204;28;20083;-78
2023/04/18 13:50:47;;;;;;;7.35;3.80;;;;;;;;;;5049290;28;20039;-77
2023/04/18 13:53:19;;;;;;;7.05;3.58;;;;;;;;;;5062220;28;20083;-77
2023/04/18 13:55:52;;;;;;;7.40;3.63;;;;;;;;;;5049081;28;20037;-78
2023/04/18 13:58:17;;;;;;;11.77;3.85;;;;;;;;;;5053534;28;20044;-78
2023/04/18 14:00:48;;;;;;;8.82;3.50;;;;;;;;;;5055300;28;20036;-76
2023/04/18 14:03:21;;;;;;;11.43;4.47;;;;;;;;;;5053433;28;20047;-77
2023/04/18 14:05:46;;;;;;;11.82;3.90;;;;;;;;;;5060950;28;20040;-78
2023/04/18 14:08:18;;;;;;;7.35;3.63;;;;;;;;;;5057216;28;20530;-78
2023/04/18 14:10:51;;;;;;;12.75;3.95;;;;;;;;;;5054180;28;20040;-77
2023/04/18 14:13:16;;;;;;;13.30;3.88;;;;;;;;;;5049847;28;20037;-77
2023/04/18 14:15:48;;;;;;;8.82;3.30;;;;;;;;;;5048131;28;20033;-78
2023/04/18 14:18:22;;;;;;;6.30;3.45;;;;;;;;;;5057650;28;20381;-78
2023/04/18 14:20:47;;;;;;;7.80;3.67;;;;;;;;;;5050323;28;20128;-77
2023/04/18 14:23:21;;;;;;;12.45;4.47;;;;;;;;;;5042389;28;20576;-77
2023/04/18 14:25:53;;;;;;;7.00;3.47;;;;;;;;;;5057892;28;20044;-77
2023/04/18 14:28:20;;;;;;;12.45;4.07;;;;;;;;;;5044648;28;20116;-78
2023/04/18 14:30:56;;;;;;;7.13;3.38;;;;;;;;;;5047952;28;20065;-77
2023/04/18 14:33:28;;;;;;;6.55;3.28;;;;;;;;;;5065292;28;20090;-77
2023/04/18 14:36:00;;;;;;;7.43;3.30;;;;;;;;;;5046366;28;20043;-77
2023/04/18 14:38:25;;;;;;;6.47;3.28;;;;;;;;;;5038675;28;20140;-77
2023/04/18 14:40:58;;;;;;;6.93;3.17;;;;;;;;;;5051518;28;20140;-78
2023/04/18 14:43:31;;;;;;;8.25;3.75;;;;;;;;;;5054493;28;20076;-77
2023/04/18 14:45:56;;;;;;;11.33;3.13;;;;;;;;;;5051417;28;20029;-77
2023/04/18 14:48:28;;;;;;;5.72;3.05;;;;;;;;;;5048541;28;20345;-77
2023/04/18 14:51:04;;;;;;;7.30;3.25;;;;;;;;;;5058049;28;20068;-77
2023/04/18 14:53:37;;;;;;;9.82;3.33;;;;;;;;;;5039410;28;20113;-78